createdAt,value
2022-09-28T00:01:31.053Z,1.15
2022-09-28T00:04:03.785Z,1.20
2022-09-28T00:06:33.092Z,0.90
2022-09-28T00:09:05.078Z,1.30
2022-09-28T00:11:31.817Z,0.88
2022-09-28T00:14:08.187Z,0.93
2022-09-28T00:16:38.915Z,0.90
2022-09-28T00:19:11.373Z,1.00
2022-09-28T00:21:39.574Z,0.90
2022-09-28T00:24:14.826Z,0.80
2022-09-28T00:26:56.364Z,1.08
2022-09-28T00:29:43.166Z,1.00
2022-09-28T00:32:12.675Z,1.00
2022-09-28T00:34:48.803Z,0.95
2022-09-28T00:37:27.940Z,1.00
2022-09-28T00:39:56.934Z,0.90
2022-09-28T00:42:38.379Z,0.80
2022-09-28T00:45:08.971Z,1.10
2022-09-28T00:47:51.203Z,0.98
2022-09-28T00:50:18.339Z,1.00
2022-09-28T00:52:47.479Z,0.93
2022-09-28T00:55:19.946Z,0.90
2022-09-28T00:57:53.769Z,0.77
2022-09-28T01:00:23.828Z,0.82
2022-09-28T01:02:56.252Z,0.80
2022-09-28T01:05:27.928Z,0.88
2022-09-28T01:08:00.762Z,0.65
2022-09-28T01:10:33.630Z,0.60
2022-09-28T01:13:03.653Z,0.93
2022-09-28T01:15:41.382Z,0.80
2022-09-28T01:18:22.781Z,0.70
2022-09-28T01:21:10.671Z,0.77
2022-09-28T01:24:10.394Z,0.68
2022-09-28T01:27:05.721Z,0.88
2022-09-28T01:29:55.578Z,0.90
2022-09-28T01:33:06.918Z,0.47
2022-09-28T01:35:44.595Z,1.00
2022-09-28T01:38:29.580Z,0.50
2022-09-28T01:41:02.440Z,0.90
2022-09-28T01:43:36.763Z,0.70
2022-09-28T01:46:19.316Z,0.60
2022-09-28T01:48:55.433Z,0.80
2022-09-28T01:52:02.236Z,0.70
2022-09-28T02:00:58.954Z,0.50
2022-09-28T02:04:15.842Z,0.60
2022-09-28T02:07:13.988Z,0.73
2022-09-28T02:10:35.640Z,0.65
2022-09-28T02:13:31.330Z,0.70
2022-09-28T02:16:14.811Z,0.60
2022-09-28T02:19:06.988Z,0.50
2022-09-28T02:21:41.747Z,0.70
2022-09-28T02:24:21.781Z,0.55
2022-09-28T02:27:05.579Z,0.65
2022-09-28T02:29:35.094Z,0.40
2022-09-28T02:32:10.173Z,0.68
2022-09-28T02:34:38.614Z,0.43
2022-09-28T02:37:13.225Z,0.77
2022-09-28T02:39:49.839Z,0.50
2022-09-28T02:42:43.567Z,0.55
2022-09-28T02:45:53.336Z,0.40
2022-09-28T02:48:44.036Z,0.63
2022-09-28T02:51:53.551Z,0.60
2022-09-28T02:54:32.578Z,0.52
2022-09-28T02:57:16.162Z,0.50
2022-09-28T03:00:09.020Z,0.60
2022-09-28T03:03:34.043Z,0.40
2022-09-28T03:06:21.642Z,0.63
2022-09-28T03:09:52.726Z,0.52
2022-09-28T03:12:43.316Z,0.60
2022-09-28T03:15:23.261Z,0.50
2022-09-28T03:18:06.127Z,0.50
2022-09-28T03:20:52.093Z,0.60
2022-09-28T03:23:25.848Z,0.50
2022-09-28T03:26:06.462Z,0.38
2022-09-28T03:31:31.804Z,0.50
2022-09-28T03:34:09.092Z,0.50
2022-09-28T03:36:39.297Z,0.50
2022-09-28T03:39:08.629Z,0.57
2022-09-28T03:41:37.097Z,0.40
2022-09-28T03:44:13.253Z,0.40
2022-09-28T03:46:49.292Z,0.40
2022-09-28T03:49:32.403Z,0.50
2022-09-28T03:52:05.768Z,0.60
2022-09-28T03:54:48.922Z,0.47
2022-09-28T03:57:22.794Z,0.45
2022-09-28T04:00:04.682Z,0.20
2022-09-28T04:02:38.456Z,0.40
2022-09-28T04:05:14.411Z,0.40
2022-09-28T04:07:51.027Z,0.30
2022-09-28T04:10:31.163Z,0.30
2022-09-28T04:13:04.139Z,0.35
2022-09-28T04:15:37.225Z,0.35
2022-09-28T04:18:13.175Z,0.40
2022-09-28T04:21:05.945Z,0.30
2022-09-28T04:23:45.201Z,0.25
2022-09-28T04:26:40.787Z,0.45
2022-09-28T04:29:21.124Z,0.30
2022-09-28T04:32:06.601Z,0.20
2022-09-28T04:34:43.891Z,0.30
2022-09-28T04:37:18.161Z,0.30
2022-09-28T04:39:48.760Z,0.28
2022-09-28T04:42:36.092Z,0.35
2022-09-28T04:45:07.249Z,0.30
2022-09-28T04:47:38.315Z,0.40
2022-09-28T04:50:20.786Z,0.30
2022-09-28T04:52:49.843Z,0.30
2022-09-28T04:55:22.731Z,0.40
2022-09-28T04:58:05.647Z,0.30
2022-09-28T05:00:41.637Z,1.15
2022-09-28T05:03:10.591Z,0.30
2022-09-28T05:05:46.378Z,0.20
2022-09-28T05:11:07.144Z,0.40
2022-09-28T05:14:06.374Z,0.30
2022-09-28T05:16:46.609Z,0.30
2022-09-28T05:19:40.500Z,0.40
2022-09-28T05:22:11.627Z,0.30
2022-09-28T05:24:52.884Z,0.20
2022-09-28T05:27:35.785Z,0.30
2022-09-28T05:30:24.804Z,0.20
2022-09-28T05:32:55.784Z,0.30
2022-09-28T05:35:24.398Z,0.10
2022-09-28T05:38:00.976Z,0.30
2022-09-28T05:40:30.391Z,0.30
2022-09-28T05:43:08.621Z,0.20
2022-09-28T05:45:55.102Z,0.73
2022-09-28T05:48:39.651Z,1.55
2022-09-28T05:51:16.866Z,1.45
2022-09-28T05:54:27.420Z,1.60
2022-09-28T05:56:58.697Z,1.80
2022-09-28T05:59:35.520Z,2.03
2022-09-28T06:02:16.222Z,1.95
2022-09-28T06:04:53.664Z,1.80
2022-09-28T06:07:33.377Z,1.80
2022-09-28T06:13:12.813Z,1.20
2022-09-28T06:16:02.331Z,1.50
2022-09-28T06:18:58.077Z,1.30
2022-09-28T06:24:26.272Z,1.17
2022-09-28T06:27:03.015Z,1.20
2022-09-28T06:29:53.246Z,1.50
2022-09-28T06:35:35.249Z,0.90
2022-09-28T06:38:24.288Z,1.20
2022-09-28T06:44:36.362Z,0.82
2022-09-28T06:49:58.158Z,1.00
2022-09-28T06:52:37.044Z,0.73
2022-09-28T06:55:10.868Z,0.85
2022-09-28T06:57:43.382Z,1.13
2022-09-28T07:00:26.631Z,0.82
2022-09-28T07:02:53.413Z,1.02
2022-09-28T07:05:36.923Z,0.98
2022-09-28T07:09:31.839Z,0.70
2022-09-28T07:46:40.845Z,0.68
2022-09-28T07:49:49.802Z,0.55
2022-09-28T08:00:41.835Z,0.50
2022-09-28T08:10:57.767Z,0.43
2022-09-28T08:17:48.183Z,0.50
2022-09-28T08:28:31.100Z,0.50
2022-09-28T08:34:08.203Z,0.50
2022-09-28T08:52:19.516Z,0.40
2022-09-28T08:55:23.748Z,0.50
2022-09-28T08:58:24.185Z,0.60
2022-09-28T09:01:47.493Z,0.38
2022-09-28T09:05:01.284Z,0.40
2022-09-28T09:08:16.501Z,0.40
2022-09-28T09:11:57.402Z,0.50
2022-09-28T09:15:07.789Z,0.57
2022-09-28T09:18:26.047Z,0.60
2022-09-28T09:21:39.262Z,0.50
2022-09-28T09:24:36.250Z,0.50
2022-09-28T09:30:52.685Z,0.60
2022-09-28T09:33:58.768Z,0.35
2022-09-28T09:36:32.919Z,0.30
2022-09-28T09:42:43.298Z,0.40
2022-09-28T09:45:48.552Z,0.40
2022-09-28T09:51:41.224Z,0.40
2022-09-28T09:54:47.962Z,0.50
2022-09-28T10:03:55.506Z,0.30
2022-09-28T10:07:42.550Z,0.40
2022-09-28T10:10:49.907Z,0.32
2022-09-28T10:13:29.444Z,0.28
2022-09-28T10:19:17.349Z,0.30
2022-09-28T10:24:47.621Z,0.30
2022-09-28T10:27:56.343Z,0.40
2022-09-28T10:40:32.975Z,0.38
2022-09-28T10:43:02.055Z,0.20
2022-09-28T10:49:53.757Z,0.50
2022-09-28T10:53:27.636Z,0.40
2022-09-28T10:56:55.284Z,0.30
2022-09-28T11:02:42.928Z,0.30
2022-09-28T11:21:53.118Z,0.22
2022-09-28T11:31:22.572Z,0.30
2022-09-28T11:45:41.189Z,0.30
2022-09-28T11:53:21.208Z,0.20
2022-09-28T11:56:51.575Z,0.20
2022-09-28T12:03:21.913Z,0.30
2022-09-28T12:03:48.751Z,0.38
2022-09-28T12:10:57.842Z,0.50
2022-09-28T12:17:29.003Z,0.60
2022-09-28T12:27:08.119Z,0.32
2022-09-28T12:30:28.615Z,0.30
2022-09-28T12:47:06.332Z,0.50
2022-09-28T12:50:41.612Z,0.30
2022-09-28T13:06:25.123Z,0.30
2022-09-28T13:09:55.940Z,0.20
2022-09-28T13:16:22.044Z,0.28
2022-09-28T13:19:23.553Z,0.20
2022-09-28T13:26:30.761Z,0.25
2022-09-28T13:32:55.797Z,0.20
2022-09-28T13:36:26.589Z,0.20
2022-09-28T13:39:36.977Z,0.30
2022-09-28T13:42:35.817Z,0.28
2022-09-28T13:49:12.166Z,0.30
2022-09-28T13:56:40.886Z,0.20
2022-09-28T14:00:57.754Z,0.32
2022-09-28T14:03:26.627Z,0.20
2022-09-28T14:06:24.352Z,0.15
2022-09-28T14:09:34.172Z,0.40
2022-09-28T14:15:42.645Z,0.20
2022-09-28T14:19:02.152Z,0.13
2022-09-28T14:21:59.671Z,0.20
2022-09-28T14:31:37.692Z,0.10
2022-09-28T14:34:39.103Z,0.20
2022-09-28T14:37:39.929Z,0.20
2022-09-28T14:41:16.734Z,0.28
2022-09-28T14:43:49.558Z,0.28
2022-09-28T14:46:25.522Z,0.60
2022-09-28T14:49:26.764Z,0.20
2022-09-28T14:52:03.853Z,0.20
2022-09-28T14:55:00.782Z,0.25
2022-09-28T14:58:15.731Z,0.20
2022-09-28T15:09:58.052Z,0.20
2022-09-28T15:12:42.646Z,0.20
2022-09-28T15:20:14.425Z,0.20
2022-09-28T15:36:24.793Z,0.40
2022-09-28T16:11:19.931Z,0.30
2022-09-28T16:13:52.865Z,0.20
2022-09-28T16:16:34.073Z,0.20
2022-09-28T16:19:01.812Z,0.22
2022-09-28T16:22:06.363Z,0.20
2022-09-28T16:24:35.469Z,0.20
2022-09-28T16:27:03.404Z,0.20
2022-09-28T16:29:41.973Z,0.30
2022-09-28T16:32:26.716Z,0.20
2022-09-28T16:35:11.302Z,0.40
2022-09-28T16:37:42.070Z,0.40
2022-09-28T16:40:09.795Z,0.20
2022-09-28T16:42:37.775Z,0.32
2022-09-28T16:45:05.359Z,0.40
2022-09-28T16:47:34.113Z,0.30
2022-09-28T16:50:02.298Z,0.10
2022-09-28T16:52:47.382Z,0.43
2022-09-28T16:55:39.587Z,0.30
2022-09-28T16:58:04.678Z,0.57
2022-09-28T17:00:31.838Z,0.20
2022-09-28T17:02:58.946Z,0.35
2022-09-28T17:05:25.539Z,0.40
2022-09-28T17:08:04.504Z,0.40
2022-09-28T17:10:49.999Z,0.40
2022-09-28T17:13:29.008Z,0.32
2022-09-28T17:15:55.932Z,0.40
2022-09-28T17:18:22.877Z,0.30
2022-09-28T17:20:51.803Z,0.45
2022-09-28T17:25:50.094Z,0.45
2022-09-28T17:28:24.333Z,0.30
2022-09-28T17:30:50.883Z,0.43
2022-09-28T17:33:17.452Z,0.50
2022-09-28T17:35:44.686Z,0.50
2022-09-28T17:38:13.371Z,0.50
2022-09-28T17:40:40.791Z,0.60
2022-09-28T17:43:07.381Z,0.40
2022-09-28T17:45:38.880Z,0.40
2022-09-28T17:48:06.390Z,0.57
2022-09-28T17:50:34.962Z,0.50
2022-09-28T17:53:06.027Z,0.60
2022-09-28T17:55:35.134Z,0.40
2022-09-28T17:58:08.590Z,0.40
2022-09-28T18:00:35.517Z,0.43
2022-09-28T18:03:02.484Z,0.30
2022-09-28T18:05:30.309Z,0.50
2022-09-28T18:07:58.749Z,0.45
2022-09-28T18:10:26.348Z,0.40
2022-09-28T18:12:53.405Z,0.43
2022-09-28T18:15:19.943Z,0.68
2022-09-28T18:17:46.512Z,0.50
2022-09-28T18:20:13.812Z,0.68
2022-09-28T18:22:40.421Z,0.60
2022-09-28T18:25:07.433Z,0.40
2022-09-28T18:27:36.790Z,0.40
2022-09-28T18:30:04.751Z,0.40
2022-09-28T18:32:34.145Z,0.35
2022-09-28T18:35:00.620Z,0.40
2022-09-28T18:37:27.120Z,0.30
2022-09-28T18:39:53.802Z,0.40
2022-09-28T18:42:20.686Z,0.35
2022-09-28T18:44:47.190Z,0.20
2022-09-28T18:47:15.043Z,0.40
2022-09-28T18:49:46.467Z,0.20
2022-09-28T18:52:13.766Z,0.20
2022-09-28T18:54:40.796Z,0.30
2022-09-28T18:57:07.349Z,0.45
2022-09-28T18:59:34.152Z,0.30
2022-09-28T19:02:01.700Z,0.50
2022-09-28T19:04:28.366Z,0.40
2022-09-28T19:06:55.362Z,0.40
2022-09-28T19:09:23.064Z,0.30
2022-09-28T19:11:49.570Z,0.30
2022-09-28T19:14:17.251Z,0.28
2022-09-28T19:16:45.541Z,0.22
2022-09-28T19:19:13.707Z,0.38
2022-09-28T19:21:43.197Z,0.28
2022-09-28T19:24:13.762Z,0.30
2022-09-28T19:26:41.392Z,0.35
2022-09-28T19:29:09.556Z,0.30
2022-09-28T19:31:37.281Z,0.30
2022-09-28T19:34:05.248Z,0.32
2022-09-28T19:36:33.263Z,0.30
2022-09-28T19:39:04.271Z,0.40
2022-09-28T19:41:43.330Z,0.45
2022-09-28T19:44:15.731Z,0.30
2022-09-28T19:46:42.980Z,0.30
2022-09-28T19:49:13.495Z,0.28
2022-09-28T19:52:01.752Z,0.30
2022-09-28T19:54:32.072Z,0.40
2022-09-28T19:57:07.434Z,0.43
2022-09-28T19:59:35.537Z,0.30
2022-09-28T20:02:03.135Z,0.22
2022-09-28T20:04:29.991Z,0.32
2022-09-28T20:06:57.048Z,0.30
2022-09-28T20:09:24.037Z,0.35
2022-09-28T20:11:51.949Z,0.40
2022-09-28T20:14:18.722Z,0.30
2022-09-28T20:16:46.316Z,0.40
2022-09-28T20:19:13.428Z,0.20
2022-09-28T20:21:40.386Z,0.30
2022-09-28T20:24:07.494Z,0.32
2022-09-28T20:26:37.362Z,0.50
2022-09-28T20:29:07.696Z,0.40
2022-09-28T20:31:38.501Z,0.22
2022-09-28T20:34:06.415Z,0.32
2022-09-28T20:36:33.808Z,0.30
2022-09-28T20:39:01.988Z,0.40
2022-09-28T20:41:34.762Z,0.22
2022-09-28T20:44:05.282Z,0.30
2022-09-28T20:46:33.338Z,0.40
2022-09-28T20:49:00.112Z,0.22
2022-09-28T20:51:27.293Z,0.20
2022-09-28T20:53:55.655Z,0.28
2022-09-28T20:56:24.611Z,0.40
2022-09-28T20:58:52.337Z,0.40
2022-09-28T21:01:22.148Z,0.25
2022-09-28T21:03:56.921Z,0.20
2022-09-28T21:06:26.569Z,0.30
2022-09-28T21:08:53.356Z,0.20
2022-09-28T21:11:23.086Z,0.30
2022-09-28T21:13:54.491Z,0.28
2022-09-28T21:16:21.985Z,0.40
2022-09-28T21:18:48.564Z,0.35
2022-09-28T21:21:17.449Z,0.38
2022-09-28T21:23:44.973Z,0.32
2022-09-28T21:26:18.879Z,0.35
2022-09-28T21:28:45.999Z,0.30
2022-09-28T21:31:14.057Z,0.45
2022-09-28T21:33:40.625Z,0.50
2022-09-28T21:36:08.124Z,0.50
2022-09-28T21:38:34.982Z,0.68
2022-09-28T21:41:01.856Z,0.60
2022-09-28T21:43:29.990Z,0.40
2022-09-28T21:45:58.151Z,0.40
2022-09-28T21:48:26.489Z,0.50
2022-09-28T21:51:04.916Z,0.47
2022-09-28T21:53:34.246Z,0.35
2022-09-28T21:56:01.911Z,0.32
2022-09-28T21:58:31.278Z,0.63
2022-09-28T22:01:05.161Z,0.45
2022-09-28T22:03:32.993Z,0.52
2022-09-28T22:06:00.005Z,0.50
2022-09-28T22:08:27.302Z,0.50
2022-09-28T22:11:23.787Z,0.57
2022-09-28T22:13:55.758Z,0.40
2022-09-28T22:16:25.879Z,0.50
2022-09-28T22:18:53.197Z,0.60
2022-09-28T22:21:25.047Z,0.60
2022-09-28T22:23:52.307Z,0.60
2022-09-28T22:26:22.004Z,0.60
2022-09-28T22:28:51.317Z,0.60
2022-09-28T22:31:20.009Z,0.55
2022-09-28T22:33:47.745Z,0.47
2022-09-28T22:36:16.571Z,0.50
2022-09-28T22:38:44.834Z,0.47
2022-09-28T22:41:12.743Z,0.65
2022-09-28T22:43:39.676Z,0.63
2022-09-28T22:46:09.877Z,0.50
2022-09-28T22:48:37.483Z,0.57
2022-09-28T22:51:06.229Z,0.60
2022-09-28T22:53:34.304Z,0.60
2022-09-28T22:56:02.039Z,0.85
2022-09-28T22:58:29.045Z,0.40
2022-09-28T23:00:57.015Z,0.60
2022-09-28T23:03:24.279Z,0.60
2022-09-28T23:05:55.825Z,0.47
2022-09-28T23:08:23.632Z,0.63
2022-09-28T23:10:51.462Z,0.70
2022-09-28T23:13:18.985Z,0.80
2022-09-28T23:15:56.537Z,0.52
2022-09-28T23:18:24.599Z,0.57
2022-09-28T23:20:59.032Z,0.65
2022-09-28T23:23:26.220Z,0.60
2022-09-28T23:25:54.290Z,0.50
2022-09-28T23:28:22.575Z,0.57
2022-09-28T23:30:49.860Z,0.70
2022-09-28T23:33:18.420Z,0.80
2022-09-28T23:35:45.853Z,0.50
2022-09-28T23:38:13.648Z,0.50
2022-09-28T23:40:41.945Z,0.50
2022-09-28T23:43:09.331Z,0.68
2022-09-28T23:45:36.105Z,0.75
2022-09-28T23:48:03.061Z,0.90
2022-09-28T23:50:30.034Z,0.45
2022-09-28T23:52:56.949Z,0.40
2022-09-28T23:55:23.974Z,0.60
2022-09-28T23:57:50.739Z,0.70
